Time;durP1;ratioP1;P1;durP2;ratioP2;P2;SDS_P1;SDS_P2;PMS_P1;PMS_P2;Temp;Humidity;BMP_temperature;BMP_pressure;BME280_temperature;BME280_humidity;BME280_pressure;Samples;Min_cycle;Max_cycle;Signal;HPM_P1;HPM_P2
2023/05/31 00:02:09;;;;;;;24.87;23.67;;;22.60;56.20;;;;;;5053653;28;20444;-54
2023/05/31 00:04:36;;;;;;;24.27;23.17;;;22.60;56.30;;;;;;5053500;28;20484;-53
2023/05/31 00:07:03;;;;;;;24.73;23.63;;;22.60;56.30;;;;;;5053633;28;20472;-54
2023/05/31 00:09:30;;;;;;;25.13;23.87;;;22.60;56.40;;;;;;5053283;28;20484;-55
2023/05/31 00:11:56;;;;;;;26.10;24.77;;;22.60;56.40;;;;;;5053530;28;20486;-58
2023/05/31 00:14:23;;;;;;;25.67;24.47;;;22.60;56.50;;;;;;5053323;28;20930;-60
2023/05/31 00:16:50;;;;;;;24.30;23.10;;;22.50;56.40;;;;;;5053470;28;20483;-59
2023/05/31 00:19:19;;;;;;;24.43;23.33;;;22.50;56.50;;;;;;5053145;28;20475;-59
2023/05/31 00:21:46;;;;;;;25.73;24.53;;;22.50;56.50;;;;;;5053274;28;20506;-59
2023/05/31 00:24:13;;;;;;;24.90;23.70;;;22.50;56.70;;;;;;5053104;28;20563;-59
2023/05/31 00:26:40;;;;;;;24.83;23.60;;;22.50;56.70;;;;;;5053437;28;20722;-59
2023/05/31 00:29:07;;;;;;;24.60;23.50;;;22.50;56.60;;;;;;5053111;28;20881;-58
2023/05/31 00:31:34;;;;;;;26.60;25.33;;;22.60;56.70;;;;;;5053130;28;20886;-57
2023/05/31 00:34:01;;;;;;;25.10;23.90;;;22.50;56.60;;;;;;5052991;28;20843;-59
2023/05/31 00:36:30;;;;;;;25.33;24.13;;;22.50;56.80;;;;;;5053099;28;20976;-57
2023/05/31 00:38:57;;;;;;;23.60;22.50;;;22.50;56.80;;;;;;5052669;28;20476;-57
2023/05/31 00:41:25;;;;;;;26.37;25.10;;;22.50;56.80;;;;;;5053027;28;20448;-58
2023/05/31 00:43:53;;;;;;;27.50;26.30;;;22.50;57.00;;;;;;5052621;28;20822;-54
2023/05/31 00:46:27;;;;;;;25.30;24.00;;;22.50;56.80;;;;;;5052986;28;20452;-58
2023/05/31 00:48:55;;;;;;;24.73;23.43;;;22.50;57.00;;;;;;5052547;28;20463;-56
2023/05/31 00:51:22;;;;;;;25.70;24.40;;;22.50;57.10;;;;;;5052532;28;20539;-55
2023/05/31 00:53:52;;;;;;;25.20;24.10;;;22.50;57.20;;;;;;5052420;28;20531;-59
2023/05/31 00:56:21;;;;;;;24.33;23.23;;;22.50;57.20;;;;;;5052679;28;20509;-57
2023/05/31 00:58:50;;;;;;;24.90;23.70;;;22.50;57.10;;;;;;5052510;28;20828;-55
2023/05/31 01:01:18;;;;;;;24.80;23.63;;;22.50;57.20;;;;;;5051977;28;20487;-58
2023/05/31 01:03:45;;;;;;;24.63;23.43;;;22.50;57.30;;;;;;5035132;28;20487;-56
2023/05/31 01:06:12;;;;;;;25.03;23.90;;;22.40;57.20;;;;;;5051580;28;20515;-55
2023/05/31 01:08:40;;;;;;;25.33;24.13;;;22.50;57.30;;;;;;5052415;28;20504;-59
2023/05/31 01:11:18;;;;;;;25.00;23.70;;;22.50;57.20;;;;;;5052131;28;20480;-59
2023/05/31 01:13:57;;;;;;;25.17;24.07;;;22.50;57.30;;;;;;5052162;28;20450;-56
2023/05/31 01:16:31;;;;;;;24.77;23.50;;;22.50;57.30;;;;;;5032374;28;20960;-55
2023/05/31 01:19:03;;;;;;;24.10;22.73;;;22.40;57.40;;;;;;5032703;28;20500;-58
2023/05/31 01:21:43;;;;;;;24.57;23.47;;;22.40;57.40;;;;;;5052225;28;20444;-56
2023/05/31 01:24:34;;;;;;;24.20;23.00;;;22.40;57.40;;;;;;5051907;28;20455;-58
2023/05/31 01:27:03;;;;;;;24.60;23.50;;;22.40;57.50;;;;;;5052079;28;20472;-54
2023/05/31 01:29:32;;;;;;;24.60;23.50;;;22.40;57.40;;;;;;5051858;28;20456;-58
2023/05/31 01:32:00;;;;;;;25.90;24.60;;;22.40;57.40;;;;;;5052135;28;20476;-53
2023/05/31 01:34:27;;;;;;;24.70;23.50;;;22.40;57.40;;;;;;5051731;28;20471;-53
2023/05/31 01:36:54;;;;;;;25.33;24.10;;;22.40;57.50;;;;;;5051676;28;20471;-58
2023/05/31 01:39:21;;;;;;;26.63;25.30;;;22.40;57.60;;;;;;5051833;28;20487;-56
2023/05/31 01:41:50;;;;;;;24.80;23.63;;;22.40;57.70;;;;;;5051800;28;20468;-60
2023/05/31 01:44:19;;;;;;;24.00;22.80;;;22.40;57.60;;;;;;5051716;28;20997;-59
2023/05/31 01:46:47;;;;;;;24.77;23.57;;;22.40;57.60;;;;;;5051675;28;20541;-57
2023/05/31 01:49:14;;;;;;;24.70;23.60;;;22.40;57.70;;;;;;5051495;28;20929;-57
2023/05/31 01:51:43;;;;;;;24.40;23.30;;;22.40;57.70;;;;;;5051714;28;20875;-58
2023/05/31 01:54:10;;;;;;;24.10;23.00;;;22.40;57.60;;;;;;5051573;28;20452;-54
2023/05/31 01:56:38;;;;;;;24.87;23.67;;;22.40;57.60;;;;;;5051528;28;20501;-56
2023/05/31 01:59:08;;;;;;;25.10;23.80;;;22.40;57.60;;;;;;5051150;28;20516;-59
2023/05/31 02:01:38;;;;;;;23.87;22.77;;;22.30;57.60;;;;;;5051604;28;20448;-58
2023/05/31 02:04:05;;;;;;;25.80;24.43;;;22.40;57.60;;;;;;5051405;28;20444;-56
2023/05/31 02:06:36;;;;;;;25.40;24.17;;;22.30;57.60;;;;;;5051367;28;20570;-60
2023/05/31 02:09:03;;;;;;;25.13;23.77;;;22.30;57.60;;;;;;5051168;28;20478;-57
2023/05/31 02:11:30;;;;;;;24.43;23.33;;;22.30;57.70;;;;;;5051368;28;20444;-54
2023/05/31 02:13:57;;;;;;;26.43;25.03;;;22.30;57.80;;;;;;5051137;28;20497;-58
2023/05/31 02:16:24;;;;;;;25.00;23.80;;;22.30;57.90;;;;;;5051202;28;20476;-56
2023/05/31 02:18:52;;;;;;;26.80;25.17;;;22.30;57.90;;;;;;5050973;28;20498;-58
2023/05/31 02:21:19;;;;;;;25.27;24.13;;;22.30;57.90;;;;;;5051276;28;20468;-56
2023/05/31 02:23:46;;;;;;;25.37;24.27;;;22.30;57.90;;;;;;5051127;28;20605;-60
2023/05/31 02:26:13;;;;;;;24.50;23.40;;;22.30;57.80;;;;;;5051141;28;20834;-56
2023/05/31 02:28:40;;;;;;;24.70;23.60;;;22.30;57.90;;;;;;5050960;28;20543;-56
2023/05/31 02:31:07;;;;;;;25.10;23.90;;;22.30;57.90;;;;;;5051152;28;20535;-55
2023/05/31 02:33:34;;;;;;;23.97;22.87;;;22.30;57.90;;;;;;5051002;28;20480;-57
2023/05/31 02:36:02;;;;;;;24.23;23.13;;;22.30;57.80;;;;;;5051242;28;20879;-54
2023/05/31 02:38:29;;;;;;;24.90;23.70;;;22.30;57.70;;;;;;5051258;28;20472;-59
2023/05/31 02:40:56;;;;;;;24.30;23.10;;;22.30;57.70;;;;;;5051205;28;20479;-55
2023/05/31 02:43:23;;;;;;;24.73;23.53;;;22.30;57.90;;;;;;5050894;28;20475;-54
2023/05/31 02:45:50;;;;;;;24.40;23.30;;;22.30;57.90;;;;;;5051007;28;20514;-57
2023/05/31 02:48:17;;;;;;;23.93;22.83;;;22.30;57.90;;;;;;5050674;28;20906;-54
2023/05/31 02:50:44;;;;;;;25.63;24.43;;;22.30;57.90;;;;;;5051100;28;20486;-56
2023/05/31 02:53:12;;;;;;;24.90;23.50;;;22.30;57.90;;;;;;5051036;28;20472;-61
2023/05/31 02:55:40;;;;;;;23.93;22.93;;;22.30;58.00;;;;;;5050910;28;20472;-59
2023/05/31 02:58:07;;;;;;;24.00;22.80;;;22.20;58.00;;;;;;5050545;28;20495;-59
2023/05/31 03:00:34;;;;;;;25.67;24.40;;;22.30;58.20;;;;;;5050853;28;20476;-60
2023/05/31 03:03:01;;;;;;;26.07;24.87;;;22.30;58.30;;;;;;5050927;28;20466;-60
2023/05/31 03:05:29;;;;;;;25.47;24.27;;;22.30;58.30;;;;;;5050611;28;20511;-52
2023/05/31 03:07:56;;;;;;;24.40;23.30;;;22.30;58.30;;;;;;5050653;28;20468;-52
2023/05/31 03:10:24;;;;;;;25.30;24.00;;;22.30;58.30;;;;;;5050446;28;20902;-53
2023/05/31 03:12:51;;;;;;;25.50;24.30;;;22.20;58.30;;;;;;5050728;28;20457;-58
2023/05/31 03:15:18;;;;;;;24.33;23.13;;;22.30;58.40;;;;;;5050813;28;20877;-60
2023/05/31 03:17:45;;;;;;;25.43;24.23;;;22.30;58.40;;;;;;5050634;28;20841;-58
2023/05/31 03:20:12;;;;;;;25.10;24.00;;;22.30;58.30;;;;;;5050815;28;20479;-57
2023/05/31 03:22:40;;;;;;;24.90;23.80;;;22.30;58.30;;;;;;5050723;28;20476;-60
2023/05/31 03:25:07;;;;;;;26.50;25.20;;;22.30;58.30;;;;;;5050588;28;20787;-60
2023/05/31 03:27:35;;;;;;;25.70;24.50;;;22.30;58.40;;;;;;5050176;28;20526;-56
2023/05/31 03:30:02;;;;;;;25.77;24.57;;;22.20;58.50;;;;;;5053038;28;20543;-56
2023/05/31 03:32:29;;;;;;;25.00;23.77;;;22.20;58.50;;;;;;5054258;28;20444;-58
2023/05/31 03:34:56;;;;;;;25.27;24.07;;;22.20;58.50;;;;;;5054103;28;20439;-53
2023/05/31 03:37:23;;;;;;;24.67;23.47;;;22.20;58.60;;;;;;5053825;28;20514;-57
2023/05/31 03:39:50;;;;;;;25.27;24.07;;;22.20;58.60;;;;;;5054171;28;20476;-55
2023/05/31 03:42:17;;;;;;;25.73;24.20;;;22.20;58.60;;;;;;5054144;28;20439;-55
2023/05/31 03:44:45;;;;;;;25.50;24.27;;;22.20;58.50;;;;;;5053876;28;20472;-55
2023/05/31 03:47:12;;;;;;;25.03;23.93;;;22.20;58.60;;;;;;5053724;28;20495;-53
2023/05/31 03:49:39;;;;;;;24.57;23.47;;;22.20;58.60;;;;;;5053926;28;20482;-54
2023/05/31 03:52:08;;;;;;;26.80;25.60;;;22.20;58.60;;;;;;5053898;28;20452;-59
2023/05/31 03:54:36;;;;;;;24.60;23.40;;;22.20;58.70;;;;;;5053694;28;20440;-60
2023/05/31 03:57:03;;;;;;;26.13;24.87;;;22.20;58.70;;;;;;5053568;28;20443;-59
2023/05/31 03:59:30;;;;;;;26.37;25.07;;;22.20;58.70;;;;;;5053801;28;20479;-59
2023/05/31 04:01:58;;;;;;;26.80;25.50;;;22.20;58.80;;;;;;5053822;28;20484;-58
2023/05/31 04:04:25;;;;;;;26.77;25.53;;;22.20;58.80;;;;;;5053536;28;20882;-53
2023/05/31 04:06:53;;;;;;;28.80;27.20;;;22.20;58.70;;;;;;5053244;28;21014;-60
2023/05/31 04:09:19;;;;;;;28.80;27.40;;;22.20;58.70;;;;;;5053661;28;20869;-56
2023/05/31 04:11:46;;;;;;;26.67;25.37;;;22.20;58.80;;;;;;5053511;28;20487;-57
2023/05/31 04:14:13;;;;;;;26.63;25.43;;;22.20;58.80;;;;;;5053432;28;20468;-60
2023/05/31 04:16:40;;;;;;;27.83;26.63;;;22.20;58.70;;;;;;5052361;28;20864;-54
2023/05/31 04:19:10;;;;;;;27.90;26.60;;;22.20;59.20;;;;;;5053046;28;20496;-54
2023/05/31 04:21:37;;;;;;;27.20;25.90;;;22.20;58.60;;;;;;5053394;28;20447;-57
2023/05/31 04:24:04;;;;;;;27.90;26.50;;;22.20;58.60;;;;;;5053150;28;20495;-52
2023/05/31 04:26:32;;;;;;;27.97;26.57;;;22.20;58.50;;;;;;5052273;28;20533;-58
2023/05/31 04:28:59;;;;;;;30.10;28.10;;;22.30;58.70;;;;;;5053027;28;20464;-60
2023/05/31 04:31:28;;;;;;;29.90;27.80;;;22.30;59.50;;;;;;5053285;28;20505;-58
2023/05/31 04:33:56;;;;;;;33.03;29.80;;;22.30;61.50;;;;;;5052945;28;20459;-61
2023/05/31 04:36:25;;;;;;;31.20;28.67;;;22.30;64.00;;;;;;5052925;28;20449;-60
2023/05/31 04:38:54;;;;;;;30.87;28.83;;;22.30;66.30;;;;;;5053031;28;20534;-53
2023/05/31 04:41:24;;;;;;;31.10;28.60;;;22.30;67.90;;;;;;5053088;28;20910;-58
2023/05/31 04:43:52;;;;;;;31.13;29.03;;;22.30;66.10;;;;;;5052811;28;20523;-55
2023/05/31 04:46:19;;;;;;;31.43;29.50;;;22.30;66.40;;;;;;5052828;28;20542;-53
2023/05/31 04:48:47;;;;;;;29.80;27.80;;;22.30;66.20;;;;;;5052696;28;20508;-55
2023/05/31 04:51:13;;;;;;;31.57;29.77;;;22.30;65.80;;;;;;5052784;28;20440;-58
2023/05/31 04:53:42;;;;;;;31.60;29.40;;;22.30;65.30;;;;;;5052513;28;20476;-58
2023/05/31 04:56:10;;;;;;;31.50;29.70;;;22.30;65.30;;;;;;5052585;28;20491;-57
2023/05/31 04:58:37;;;;;;;30.77;29.17;;;22.30;64.60;;;;;;5052601;28;20547;-55
2023/05/31 05:01:04;;;;;;;29.60;27.90;;;22.30;64.70;;;;;;5053799;28;20526;-60
2023/05/31 05:03:31;;;;;;;30.67;28.90;;;22.30;64.00;;;;;;5052422;28;20476;-57
2023/05/31 05:05:58;;;;;;;30.23;28.10;;;22.30;64.00;;;;;;5052509;28;20508;-53
2023/05/31 05:08:25;;;;;;;28.70;27.00;;;22.30;63.80;;;;;;5052370;28;20500;-53
2023/05/31 05:10:53;;;;;;;29.60;28.00;;;22.30;63.30;;;;;;5053506;28;20455;-56
2023/05/31 05:13:20;;;;;;;30.80;29.30;;;22.30;63.30;;;;;;5053958;28;20479;-60
2023/05/31 05:15:47;;;;;;;29.20;27.50;;;22.30;62.90;;;;;;5052154;28;20480;-52
2023/05/31 05:18:14;;;;;;;28.70;27.10;;;22.30;62.90;;;;;;5052957;28;20491;-59
2023/05/31 05:20:41;;;;;;;29.60;27.80;;;22.30;62.60;;;;;;5053545;28;20444;-61
2023/05/31 05:23:08;;;;;;;28.90;27.50;;;22.30;62.40;;;;;;5052150;28;20853;-57
2023/05/31 05:25:36;;;;;;;28.70;27.00;;;22.30;62.20;;;;;;5051877;28;20907;-58
2023/05/31 05:28:04;;;;;;;29.37;27.83;;;22.30;62.20;;;;;;5052060;28;20501;-57
2023/05/31 05:30:32;;;;;;;29.90;28.33;;;22.30;62.00;;;;;;5051988;28;20444;-54
2023/05/31 05:32:59;;;;;;;29.10;27.60;;;22.30;61.90;;;;;;5051938;28;20521;-61
2023/05/31 05:35:26;;;;;;;29.03;27.63;;;22.30;61.60;;;;;;5051862;28;20528;-58
2023/05/31 05:37:53;;;;;;;28.20;26.70;;;22.30;61.30;;;;;;5051801;28;20515;-56
2023/05/31 05:40:20;;;;;;;29.80;28.13;;;22.30;61.20;;;;;;5051932;28;20947;-59
2023/05/31 05:42:48;;;;;;;28.60;27.20;;;22.30;61.30;;;;;;5052442;28;20498;-58
2023/05/31 05:45:16;;;;;;;27.97;26.57;;;22.30;61.10;;;;;;5052428;28;20483;-54
2023/05/31 05:47:44;;;;;;;28.23;26.93;;;22.30;60.90;;;;;;5051526;28;20484;-61
2023/05/31 05:50:12;;;;;;;28.67;27.30;;;22.40;60.90;;;;;;5052998;28;20448;-56
2023/05/31 05:52:39;;;;;;;28.40;26.90;;;22.30;60.70;;;;;;5053008;28;20444;-60
2023/05/31 05:55:07;;;;;;;28.63;27.20;;;22.30;61.50;;;;;;5051544;28;20823;-60
2023/05/31 05:57:34;;;;;;;28.77;27.47;;;22.30;60.50;;;;;;5051605;28;20484;-61
2023/05/31 06:00:02;;;;;;;30.47;28.80;;;22.30;60.40;;;;;;5051634;28;20498;-60
2023/05/31 06:02:30;;;;;;;29.50;28.10;;;22.30;60.40;;;;;;5052507;28;20820;-57
2023/05/31 06:04:57;;;;;;;29.00;27.10;;;22.30;60.40;;;;;;5053077;28;20480;-57
2023/05/31 06:07:24;;;;;;;30.07;28.57;;;22.30;60.20;;;;;;5052856;28;20484;-56
2023/05/31 06:09:52;;;;;;;29.00;27.40;;;22.40;60.10;;;;;;5051433;28;20436;-51
2023/05/31 06:12:19;;;;;;;28.97;27.67;;;22.40;59.90;;;;;;5051464;28;20870;-57
2023/05/31 06:14:46;;;;;;;29.67;28.07;;;22.40;59.90;;;;;;5051218;28;20452;-58
2023/05/31 06:17:12;;;;;;;28.63;27.27;;;22.30;59.90;;;;;;5051587;28;20484;-58
2023/05/31 06:19:41;;;;;;;28.87;27.27;;;22.30;59.80;;;;;;5053686;28;20479;-60
2023/05/31 06:22:08;;;;;;;29.33;27.67;;;22.30;59.70;;;;;;5052981;28;20491;-56
2023/05/31 06:24:35;;;;;;;28.97;27.30;;;22.30;59.70;;;;;;5050992;28;20468;-60
2023/05/31 06:27:02;;;;;;;29.33;27.93;;;22.40;59.70;;;;;;5051166;28;20538;-58
2023/05/31 06:29:29;;;;;;;30.43;28.60;;;22.30;59.50;;;;;;5051163;28;20440;-54
2023/05/31 06:31:56;;;;;;;28.90;27.60;;;22.30;59.50;;;;;;5051079;28;20970;-60
2023/05/31 06:34:23;;;;;;;29.70;28.30;;;22.30;59.40;;;;;;5050987;28;20682;-57
2023/05/31 06:36:52;;;;;;;28.27;26.97;;;22.30;59.40;;;;;;5051004;28;20872;-54
2023/05/31 06:39:18;;;;;;;28.67;27.30;;;22.30;59.40;;;;;;5051180;28;20436;-59
2023/05/31 06:41:45;;;;;;;28.33;26.93;;;22.40;59.40;;;;;;5051090;28;20534;-58
2023/05/31 06:44:12;;;;;;;29.10;27.60;;;22.30;59.30;;;;;;5050814;28;20487;-61
2023/05/31 06:46:39;;;;;;;28.90;27.60;;;22.30;59.30;;;;;;5050933;28;20566;-58
2023/05/31 06:49:06;;;;;;;29.23;27.93;;;22.40;59.20;;;;;;5052616;28;21049;-56
2023/05/31 06:51:33;;;;;;;28.63;26.97;;;22.40;59.20;;;;;;5053495;28;20495;-59
2023/05/31 06:54:02;;;;;;;28.13;26.73;;;22.30;59.10;;;;;;5051360;28;20483;-60
2023/05/31 06:56:29;;;;;;;28.60;27.03;;;22.40;59.10;;;;;;5050971;28;20475;-56
2023/05/31 06:58:56;;;;;;;29.10;27.80;;;22.30;59.10;;;;;;5050956;28;20978;-53
2023/05/31 07:01:24;;;;;;;28.93;27.50;;;22.30;59.10;;;;;;5051741;28;20809;-54
2023/05/31 07:03:50;;;;;;;28.80;27.50;;;22.30;59.10;;;;;;5051311;28;20536;-55
2023/05/31 07:06:17;;;;;;;30.40;29.00;;;22.30;59.00;;;;;;5054788;28;20910;-55
2023/05/31 07:08:45;;;;;;;28.17;26.87;;;22.30;59.00;;;;;;5054743;28;20837;-53
2023/05/31 07:11:13;;;;;;;28.17;26.97;;;22.30;59.10;;;;;;5056521;28;20451;-54
2023/05/31 07:13:40;;;;;;;27.40;26.13;;;22.30;58.90;;;;;;5056237;28;20475;-61
2023/05/31 07:16:07;;;;;;;28.20;26.80;;;22.30;58.90;;;;;;5054576;28;21525;-57
2023/05/31 07:18:34;;;;;;;28.63;27.33;;;22.30;58.90;;;;;;5054611;28;20499;-56
2023/05/31 07:21:01;;;;;;;27.83;26.53;;;22.40;58.90;;;;;;5054598;28;20472;-58
2023/05/31 07:23:28;;;;;;;28.07;26.77;;;22.30;58.80;;;;;;5054412;28;20440;-56
2023/05/31 07:25:57;;;;;;;29.13;27.83;;;22.40;58.80;;;;;;5054147;28;20494;-61
2023/05/31 07:28:25;;;;;;;31.67;29.67;;;22.40;58.70;;;;;;5054301;28;20472;-60
2023/05/31 07:30:52;;;;;;;30.07;28.60;;;22.40;58.70;;;;;;5054905;28;20955;-51
2023/05/31 07:33:19;;;;;;;29.70;28.30;;;22.40;58.70;;;;;;5054311;28;20472;-62
2023/05/31 07:35:46;;;;;;;30.47;29.07;;;22.40;58.60;;;;;;5053984;28;20483;-61
2023/05/31 07:38:12;;;;;;;28.13;26.93;;;22.40;58.50;;;;;;5054070;28;20511;-59
2023/05/31 07:40:40;;;;;;;28.63;26.97;;;22.40;58.60;;;;;;5054219;28;20518;-59
2023/05/31 07:43:07;;;;;;;28.67;27.47;;;22.40;58.60;;;;;;5055958;28;20483;-57
2023/05/31 07:45:36;;;;;;;29.70;28.33;;;22.40;58.50;;;;;;5053893;28;20574;-52
2023/05/31 07:48:02;;;;;;;28.73;27.43;;;22.40;58.40;;;;;;5053788;28;20566;-57
2023/05/31 07:50:29;;;;;;;30.23;28.93;;;22.40;58.40;;;;;;5054004;28;20719;-60
2023/05/31 07:52:57;;;;;;;29.70;28.40;;;22.40;58.40;;;;;;5053901;28;20483;-60
2023/05/31 07:55:25;;;;;;;28.33;27.03;;;22.40;58.40;;;;;;5054830;28;20459;-59
2023/05/31 07:57:51;;;;;;;29.67;28.10;;;22.40;58.30;;;;;;5056131;28;21169;-59
2023/05/31 08:00:19;;;;;;;27.80;26.50;;;22.40;58.90;;;;;;5054260;28;20472;-58
2023/05/31 08:02:47;;;;;;;27.60;26.30;;;22.40;58.40;;;;;;5053615;28;20464;-58
2023/05/31 08:05:14;;;;;;;29.80;28.40;;;22.40;58.40;;;;;;5053958;28;20478;-59
2023/05/31 08:07:41;;;;;;;28.53;27.23;;;22.40;58.40;;;;;;5055010;28;20518;-52
2023/05/31 08:10:09;;;;;;;28.27;26.87;;;22.40;58.30;;;;;;5054287;28;20448;-57
2023/05/31 08:12:35;;;;;;;29.13;27.83;;;22.40;58.30;;;;;;5053567;28;20487;-55
2023/05/31 08:15:02;;;;;;;28.77;27.47;;;22.40;58.30;;;;;;5052970;28;20454;-57
2023/05/31 08:17:29;;;;;;;27.07;25.87;;;22.40;58.20;;;;;;5053410;28;20474;-58
2023/05/31 08:19:58;;;;;;;27.90;26.60;;;22.40;58.20;;;;;;5053352;28;20487;-60
2023/05/31 08:22:24;;;;;;;28.27;26.97;;;22.40;58.10;;;;;;5053423;28;20497;-58
2023/05/31 08:24:51;;;;;;;27.77;26.47;;;22.40;58.10;;;;;;5053025;28;20476;-58
2023/05/31 08:27:18;;;;;;;29.60;28.10;;;22.40;58.10;;;;;;5053193;28;20507;-57
2023/05/31 08:29:45;;;;;;;28.83;27.23;;;22.40;58.10;;;;;;5053302;28;20476;-59
2023/05/31 08:32:12;;;;;;;26.60;25.40;;;22.40;58.10;;;;;;5053156;28;20472;-59
2023/05/31 08:34:39;;;;;;;26.03;24.83;;;22.40;58.00;;;;;;5053021;28;20878;-59
2023/05/31 08:39:35;;;;;;;27.60;26.40;;;22.40;58.00;;;;;;5012436;28;20462;-59
2023/05/31 08:42:05;;;;;;;26.00;24.80;;;22.40;58.00;;;;;;5013988;28;20964;-61
2023/05/31 08:44:33;;;;;;;27.43;26.23;;;22.40;58.00;;;;;;5013954;28;20442;-60
2023/05/31 08:47:07;;;;;;;27.50;26.30;;;22.40;57.90;;;;;;5014231;28;20568;-60
2023/05/31 08:49:36;;;;;;;28.73;27.23;;;22.40;57.90;;;;;;4994468;28;20525;-61
2023/05/31 08:52:03;;;;;;;26.70;25.50;;;22.40;57.90;;;;;;4993986;28;20509;-61
2023/05/31 08:54:30;;;;;;;26.57;25.27;;;22.40;57.90;;;;;;4993845;28;20450;-60
2023/05/31 08:57:01;;;;;;;29.43;27.77;;;22.40;57.80;;;;;;4994664;28;20479;-61
2023/05/31 08:59:28;;;;;;;27.23;25.90;;;22.40;57.90;;;;;;4994811;28;20521;-60
2023/05/31 09:01:55;;;;;;;27.50;26.30;;;22.40;57.80;;;;;;4994382;28;20516;-62
2023/05/31 09:04:23;;;;;;;27.40;26.03;;;22.40;57.80;;;;;;4994652;28;20479;-60
2023/05/31 09:06:51;;;;;;;28.10;26.90;;;22.40;57.70;;;;;;4994877;28;20479;-62
2023/05/31 09:09:18;;;;;;;27.30;26.00;;;22.40;57.70;;;;;;4994487;28;20513;-60
2023/05/31 09:11:46;;;;;;;28.27;26.97;;;22.40;57.70;;;;;;4994118;28;20877;-61
2023/05/31 09:14:14;;;;;;;28.23;26.93;;;22.50;57.80;;;;;;4993795;28;20817;-60
2023/05/31 09:16:42;;;;;;;27.63;26.37;;;22.50;57.80;;;;;;4994245;28;20475;-60
2023/05/31 09:19:08;;;;;;;28.23;26.93;;;22.40;57.70;;;;;;4993590;28;20990;-57
2023/05/31 09:21:40;;;;;;;27.83;26.53;;;22.50;57.80;;;;;;4993142;28;20859;-57
2023/05/31 09:24:07;;;;;;;29.00;27.77;;;22.50;57.80;;;;;;4992819;28;20458;-60
2023/05/31 09:26:34;;;;;;;27.13;25.93;;;22.50;57.70;;;;;;4992217;28;20478;-58
2023/05/31 09:29:01;;;;;;;27.07;25.90;;;22.40;57.60;;;;;;4992790;28;20498;-60
2023/05/31 09:31:29;;;;;;;28.10;26.83;;;22.50;57.70;;;;;;4992921;28;20495;-61
2023/05/31 09:33:56;;;;;;;28.30;27.10;;;22.50;57.60;;;;;;4992618;28;20980;-60
2023/05/31 09:36:28;;;;;;;27.10;25.90;;;22.40;57.50;;;;;;4992749;28;20478;-58
2023/05/31 09:39:03;;;;;;;27.60;26.20;;;22.50;57.60;;;;;;4992524;28;20529;-60
2023/05/31 09:41:33;;;;;;;27.73;26.43;;;22.50;57.60;;;;;;4993363;28;20458;-59
2023/05/31 09:44:00;;;;;;;27.60;26.33;;;22.50;57.60;;;;;;4993329;28;20808;-59
2023/05/31 09:46:28;;;;;;;26.80;25.70;;;22.50;57.60;;;;;;4993904;28;20497;-61
2023/05/31 09:49:00;;;;;;;29.00;27.70;;;22.50;57.60;;;;;;4993278;28;20490;-60
2023/05/31 09:51:27;;;;;;;28.17;26.77;;;22.50;57.50;;;;;;4993222;28;20490;-61
2023/05/31 09:53:55;;;;;;;26.70;25.60;;;22.50;57.40;;;;;;4993175;28;20483;-59
2023/05/31 09:56:23;;;;;;;29.00;27.60;;;22.50;57.40;;;;;;4993533;28;20479;-61
2023/05/31 09:58:52;;;;;;;27.10;25.90;;;22.50;57.40;;;;;;4993678;28;20497;-61
2023/05/31 10:01:19;;;;;;;28.00;26.80;;;22.50;57.30;;;;;;4994097;28;20797;-60
2023/05/31 10:03:49;;;;;;;28.33;27.03;;;22.50;57.30;;;;;;4993535;28;20493;-61
2023/05/31 10:06:17;;;;;;;28.30;27.00;;;22.50;57.30;;;;;;4993910;28;20853;-60
2023/05/31 10:08:45;;;;;;;29.10;27.83;;;22.50;57.20;;;;;;4993218;28;20494;-61
2023/05/31 10:11:14;;;;;;;27.87;26.60;;;22.50;57.20;;;;;;4993046;28;20454;-61
2023/05/31 10:13:44;;;;;;;26.87;25.77;;;22.50;57.10;;;;;;4993558;28;20984;-60
2023/05/31 10:16:12;;;;;;;25.97;24.80;;;22.50;57.10;;;;;;4994759;28;20483;-61
2023/05/31 10:18:45;;;;;;;26.77;25.57;;;22.50;57.10;;;;;;4994570;28;20891;-58
2023/05/31 10:21:22;;;;;;;28.67;27.30;;;22.50;57.10;;;;;;4994000;28;20439;-60
2023/05/31 10:23:58;;;;;;;27.77;26.43;;;22.50;57.00;;;;;;4993647;28;20458;-61
2023/05/31 10:26:33;;;;;;;28.33;27.13;;;22.50;57.00;;;;;;4993883;28;20474;-58
2023/05/31 10:29:06;;;;;;;27.90;26.63;;;22.50;56.90;;;;;;4993055;28;20496;-59
2023/05/31 10:31:42;;;;;;;27.20;26.00;;;22.50;56.90;;;;;;4993312;28;20451;-64
2023/05/31 10:34:16;;;;;;;25.93;24.70;;;22.50;57.10;;;;;;4992199;28;20454;-64
2023/05/31 10:36:45;;;;;;;26.27;24.80;;;22.60;56.90;;;;;;4992060;28;20957;-64
2023/05/31 10:39:20;;;;;;;26.87;25.67;;;22.60;56.70;;;;;;4994635;28;20470;-61
2023/05/31 10:41:53;;;;;;;27.00;25.60;;;22.60;56.40;;;;;;4996244;28;20453;-61
2023/05/31 10:44:28;;;;;;;27.37;26.10;;;22.70;56.30;;;;;;4995507;28;20532;-62
2023/05/31 10:47:02;;;;;;;27.10;25.90;;;22.70;56.30;;;;;;4976471;28;20443;-60
2023/05/31 10:49:34;;;;;;;28.00;26.70;;;22.80;56.10;;;;;;4976610;28;20530;-57
2023/05/31 10:52:07;;;;;;;27.00;25.80;;;22.90;56.20;;;;;;4976392;28;20452;-58
2023/05/31 10:54:34;;;;;;;28.70;27.40;;;22.90;56.20;;;;;;4990340;28;20493;-63
2023/05/31 10:57:05;;;;;;;28.30;26.90;;;23.00;56.20;;;;;;4995717;28;20794;-61
2023/05/31 10:59:42;;;;;;;29.30;27.80;;;23.10;56.50;;;;;;4995661;28;20534;-60
2023/05/31 11:02:11;;;;;;;28.17;26.87;;;23.10;56.40;;;;;;4995555;28;20453;-59
2023/05/31 11:04:38;;;;;;;28.77;27.37;;;23.20;56.40;;;;;;4995477;28;20533;-60
2023/05/31 11:07:14;;;;;;;30.27;28.47;;;23.20;56.50;;;;;;4994829;28;20621;-61
2023/05/31 11:09:42;;;;;;;27.20;25.90;;;23.30;56.70;;;;;;4976035;28;20459;-62
2023/05/31 11:12:13;;;;;;;26.90;25.70;;;23.30;56.70;;;;;;4988752;28;20447;-61
2023/05/31 11:14:40;;;;;;;26.23;25.00;;;23.30;56.70;;;;;;4995453;28;20930;-58
2023/05/31 11:17:15;;;;;;;28.33;27.03;;;23.30;56.50;;;;;;4995370;28;20454;-60
2023/05/31 11:19:43;;;;;;;27.90;26.53;;;23.30;56.50;;;;;;4995190;28;21021;-59
2023/05/31 11:22:15;;;;;;;27.27;25.97;;;23.30;56.50;;;;;;4995174;28;20833;-60
2023/05/31 11:24:51;;;;;;;29.10;27.70;;;23.30;56.40;;;;;;4995022;28;20446;-60
2023/05/31 11:27:19;;;;;;;28.83;27.53;;;23.30;56.40;;;;;;4995048;28;20457;-61
2023/05/31 11:30:03;;;;;;;26.47;25.17;;;23.20;56.40;;;;;;4995218;28;20493;-60
2023/05/31 11:32:56;;;;;;;27.40;26.00;;;23.20;56.40;;;;;;4995059;28;20447;-60
2023/05/31 11:35:25;;;;;;;27.00;25.83;;;23.20;56.40;;;;;;4994891;28;20455;-59
2023/05/31 11:38:09;;;;;;;26.67;25.50;;;23.20;56.40;;;;;;4994859;28;21005;-58
2023/05/31 11:40:36;;;;;;;26.83;25.67;;;23.10;56.40;;;;;;4995014;28;20554;-59
2023/05/31 11:43:11;;;;;;;26.93;25.63;;;23.10;56.30;;;;;;4994972;28;20451;-60
2023/05/31 11:45:44;;;;;;;27.50;26.30;;;23.10;56.30;;;;;;4994834;28;20446;-60
2023/05/31 11:48:22;;;;;;;28.57;27.23;;;23.10;56.30;;;;;;4994657;28;21065;-61
2023/05/31 11:50:49;;;;;;;27.10;25.90;;;23.10;56.30;;;;;;4994013;28;20474;-61
2023/05/31 11:53:17;;;;;;;26.70;25.50;;;23.10;56.30;;;;;;4994575;28;20493;-61
2023/05/31 11:55:48;;;;;;;27.00;25.80;;;23.00;56.20;;;;;;4994502;28;20479;-59
2023/05/31 11:58:15;;;;;;;28.30;27.00;;;23.00;56.20;;;;;;4994626;28;20521;-59
2023/05/31 12:00:45;;;;;;;26.80;25.60;;;23.00;56.20;;;;;;4994629;28;20538;-60
2023/05/31 12:03:16;;;;;;;26.60;25.40;;;23.00;56.20;;;;;;4994479;28;20478;-61
2023/05/31 12:05:45;;;;;;;26.43;25.27;;;23.00;56.20;;;;;;4994414;28;20486;-61
2023/05/31 12:08:14;;;;;;;25.57;24.47;;;23.00;56.70;;;;;;4994296;28;20583;-59
2023/05/31 12:10:45;;;;;;;28.00;26.60;;;23.00;56.10;;;;;;4994543;28;20474;-60
2023/05/31 12:13:12;;;;;;;25.83;24.73;;;23.00;56.10;;;;;;4994431;28;20458;-61
2023/05/31 12:15:39;;;;;;;26.50;25.30;;;23.00;56.00;;;;;;4994285;28;20451;-60
2023/05/31 12:18:06;;;;;;;26.50;25.30;;;23.00;56.00;;;;;;4994302;28;20463;-59
2023/05/31 12:20:34;;;;;;;27.43;26.03;;;23.00;56.00;;;;;;4994381;28;20489;-61
2023/05/31 12:23:12;;;;;;;26.63;25.33;;;23.00;55.90;;;;;;4994170;28;20450;-60
2023/05/31 12:25:46;;;;;;;26.00;24.80;;;23.00;55.90;;;;;;4994121;28;20882;-63
2023/05/31 12:28:13;;;;;;;26.27;24.90;;;23.00;55.80;;;;;;4993923;28;20485;-61
2023/05/31 12:30:45;;;;;;;27.33;26.03;;;23.00;55.90;;;;;;4994215;28;20454;-62
2023/05/31 12:33:12;;;;;;;26.07;24.87;;;23.00;55.80;;;;;;4993840;28;20446;-62
2023/05/31 12:35:44;;;;;;;26.70;25.50;;;23.10;55.90;;;;;;4993756;28;20447;-61
2023/05/31 12:38:11;;;;;;;26.57;25.37;;;23.00;55.70;;;;;;4993512;28;20521;-59